Terminal Aerodrome Forecast
Issued by NWS Louisville, KY

Home | Current Version | Previous Version | Text Only | Print | Product List | Glossary On
Versions: 1 2 3 4 5 6 7 8 9 10 11 12 13 14 15 16 17 18
000
FTUS43 KLMK 270600 AAA
TAFLEX
TAF AMD
KLEX 270652Z 2707/2806 19008KT P6SM VCSH SCT008 BKN015 OVC080
      TEMPO 2707/2711 BKN008
     FM271200 24008KT P6SM OVC010
     FM271700 32010G20KT P6SM BKN015
     FM272200 34011KT P6SM BKN035
     FM280200 34007KT P6SM SCT050=

USA.gov is the U.S. government's official web portal to all federal, state and local government web resources and services.